Time;durP1;ratioP1;P1;durP2;ratioP2;P2;SDS_P1;SDS_P2;PMS_P1;PMS_P2;Temp;Humidity;BMP_temperature;BMP_pressure;BME280_temperature;BME280_humidity;BME280_pressure;Samples;Min_cycle;Max_cycle;Signal;HPM_P1;HPM_P2
2020/12/19 00:02:24;;;;;;;15.05;8.57;;;5.10;99.90;;;;;;4734789;30;20055;-89
2020/12/19 00:04:50;;;;;;;14.80;8.82;;;5.20;99.90;;;;;;4721898;30;20075;-86
2020/12/19 00:07:18;;;;;;;12.75;8.65;;;5.20;99.90;;;;;;4745412;30;20060;-86
2020/12/19 00:10:06;;;;;;;13.60;8.07;;;5.10;99.90;;;;;;4727626;30;20493;-86
2020/12/19 00:12:32;;;;;;;11.85;8.13;;;5.10;99.90;;;;;;4751838;30;20478;-86
2020/12/19 00:14:57;;;;;;;14.43;8.20;;;5.10;99.90;;;;;;4736784;30;20131;-87
2020/12/19 00:17:23;;;;;;;15.52;8.88;;;5.20;99.90;;;;;;4733377;30;20048;-88
2020/12/19 00:19:49;;;;;;;16.13;9.32;;;5.10;99.90;;;;;;4734192;30;20133;-86
2020/12/19 00:22:15;;;;;;;16.70;9.20;;;5.10;99.90;;;;;;4736922;30;20052;-85
2020/12/19 00:24:40;;;;;;;15.00;9.82;;;5.10;99.90;;;;;;4733620;30;20485;-86
2020/12/19 00:27:10;;;;;;;12.05;8.90;;;5.10;99.90;;;;;;4736073;30;20044;-85
2020/12/19 00:29:38;;;;;;;16.83;9.32;;;5.10;99.90;;;;;;4735154;30;20131;-86
2020/12/19 00:32:04;;;;;;;15.85;9.25;;;5.10;99.90;;;;;;4731827;30;20048;-85
2020/12/19 00:34:30;;;;;;;14.50;9.20;;;5.10;99.90;;;;;;4736259;30;20052;-88
2020/12/19 00:37:15;;;;;;;19.08;10.05;;;5.10;99.90;;;;;;4725057;30;20052;-86
2020/12/19 00:39:41;;;;;;;16.77;9.63;;;5.10;99.90;;;;;;4730746;30;20052;-86
2020/12/19 00:42:27;;;;;;;17.20;10.13;;;5.10;99.90;;;;;;4726004;30;20122;-88
2020/12/19 00:45:13;;;;;;;14.05;10.20;;;5.10;99.90;;;;;;4713254;30;20052;-86
2020/12/19 00:47:59;;;;;;;15.95;9.77;;;5.00;99.90;;;;;;4734999;30;20044;-84
2020/12/19 00:50:25;;;;;;;15.88;9.38;;;5.00;99.90;;;;;;4733959;30;20115;-84
2020/12/19 00:53:11;;;;;;;16.95;11.55;;;5.00;99.90;;;;;;4735829;30;20061;-84
2020/12/19 00:55:36;;;;;;;15.13;10.68;;;5.00;99.90;;;;;;4735970;30;20417;-85
2020/12/19 00:58:02;;;;;;;15.75;10.23;;;5.00;99.90;;;;;;4736448;30;20071;-84
2020/12/19 01:00:29;;;;;;;21.33;11.50;;;5.00;99.90;;;;;;4751789;30;20048;-90
2020/12/19 01:02:55;;;;;;;15.93;10.88;;;4.90;99.90;;;;;;4740987;30;20137;-84
2020/12/19 01:05:21;;;;;;;18.05;11.35;;;4.90;99.90;;;;;;4741002;30;20076;-84
2020/12/19 01:08:06;;;;;;;14.88;11.15;;;4.80;99.90;;;;;;4721315;30;20143;-84
2020/12/19 01:10:32;;;;;;;18.98;10.75;;;4.90;99.90;;;;;;4741665;30;20132;-86
2020/12/19 01:12:58;;;;;;;16.90;11.77;;;4.90;99.90;;;;;;4750669;30;20048;-85
2020/12/19 01:15:24;;;;;;;22.50;12.00;;;4.90;99.90;;;;;;4752060;30;20391;-85
2020/12/19 01:17:49;;;;;;;16.90;12.27;;;4.90;99.90;;;;;;4749836;30;20296;-86
2020/12/19 01:20:15;;;;;;;19.25;12.57;;;4.90;99.90;;;;;;4752014;30;20091;-85
2020/12/19 01:22:41;;;;;;;19.77;12.38;;;4.90;99.90;;;;;;4735447;30;20171;-86
2020/12/19 01:25:06;;;;;;;19.75;12.48;;;5.00;99.90;;;;;;4753077;30;20134;-85
2020/12/19 01:27:32;;;;;;;21.02;12.65;;;5.00;99.90;;;;;;4735148;30;20123;-88
2020/12/19 01:29:58;;;;;;;22.55;13.30;;;5.00;99.90;;;;;;4750693;30;20048;-86
2020/12/19 01:32:24;;;;;;;20.60;12.90;;;5.10;99.90;;;;;;4721571;30;20459;-85
2020/12/19 01:34:49;;;;;;;21.05;12.82;;;5.00;99.90;;;;;;4735748;30;20056;-86
2020/12/19 01:37:16;;;;;;;19.35;13.25;;;5.00;99.90;;;;;;4721482;30;20102;-85
2020/12/19 01:39:42;;;;;;;24.00;13.80;;;5.10;99.90;;;;;;4735929;30;20091;-86
2020/12/19 01:42:27;;;;;;;19.00;12.50;;;5.10;99.90;;;;;;4711330;30;20067;-86
2020/12/19 01:44:54;;;;;;;22.67;13.27;;;5.10;99.90;;;;;;4750009;30;20040;-85
2020/12/19 01:47:40;;;;;;;19.13;12.63;;;5.10;99.90;;;;;;4720185;30;20068;-86
2020/12/19 01:50:06;;;;;;;23.95;13.15;;;5.20;99.90;;;;;;4731911;30;20052;-85
2020/12/19 01:52:34;;;;;;;17.67;12.70;;;5.20;99.90;;;;;;4721427;30;20060;-88
2020/12/19 01:55:01;;;;;;;18.92;11.25;;;5.10;99.90;;;;;;4736375;30;20059;-85
2020/12/19 01:57:46;;;;;;;15.60;11.70;;;5.20;99.90;;;;;;4726479;30;20068;-84
2020/12/19 02:00:32;;;;;;;17.63;11.25;;;5.20;99.90;;;;;;4702514;30;20056;-86
2020/12/19 02:02:58;;;;;;;18.15;12.60;;;5.20;99.90;;;;;;4735696;30;20101;-85
2020/12/19 02:05:24;;;;;;;18.15;11.52;;;5.30;99.90;;;;;;4721224;30;20397;-85
2020/12/19 02:08:10;;;;;;;24.42;12.68;;;5.30;99.90;;;;;;4714375;30;20062;-85
2020/12/19 02:10:37;;;;;;;19.58;12.27;;;5.30;99.90;;;;;;4721094;30;20052;-90
2020/12/19 02:13:04;;;;;;;18.50;11.77;;;5.30;99.90;;;;;;4735434;30;20075;-85
2020/12/19 02:15:50;;;;;;;20.52;12.40;;;5.30;99.90;;;;;;4737301;30;20497;-85
2020/12/19 02:18:16;;;;;;;20.25;12.75;;;5.30;99.90;;;;;;4751193;30;20065;-85
2020/12/19 02:20:42;;;;;;;18.52;12.00;;;5.30;99.90;;;;;;4734897;30;20105;-86
2020/12/19 02:23:27;;;;;;;20.48;11.45;;;5.30;99.90;;;;;;4713795;30;20486;-85
2020/12/19 02:25:53;;;;;;;18.58;12.05;;;5.30;99.90;;;;;;4734952;30;20059;-85
2020/12/19 02:28:19;;;;;;;22.38;12.82;;;5.20;99.90;;;;;;4720795;30;20472;-85
2020/12/19 02:30:45;;;;;;;14.77;11.00;;;5.20;99.90;;;;;;4734282;30;20059;-86
2020/12/19 02:33:30;;;;;;;15.48;12.27;;;5.30;99.90;;;;;;4738126;30;20055;-86
2020/12/19 02:35:56;;;;;;;16.70;11.13;;;5.20;99.90;;;;;;4720045;30;20048;-84
2020/12/19 02:38:42;;;;;;;18.83;12.02;;;5.20;99.90;;;;;;4731239;30;20122;-85
2020/12/19 02:41:28;;;;;;;17.20;11.15;;;5.20;99.90;;;;;;4723142;30;20044;-85
2020/12/19 02:43:57;;;;;;;17.92;11.07;;;5.20;99.90;;;;;;4720152;30;20062;-87
2020/12/19 02:46:24;;;;;;;23.60;13.27;;;5.20;99.90;;;;;;4750542;30;20456;-85
2020/12/19 02:48:50;;;;;;;18.20;13.00;;;5.20;99.90;;;;;;4749720;30;20080;-85
2020/12/19 02:51:16;;;;;;;20.45;13.95;;;5.20;99.90;;;;;;4734716;30;20052;-89
2020/12/19 02:53:42;;;;;;;23.33;13.80;;;5.20;99.90;;;;;;4749067;30;20151;-85
2020/12/19 02:56:28;;;;;;;25.30;13.68;;;5.20;99.90;;;;;;4736500;30;20060;-85
2020/12/19 02:58:54;;;;;;;24.02;13.70;;;5.20;99.90;;;;;;4749556;30;20069;-85
2020/12/19 03:01:40;;;;;;;19.13;13.00;;;5.20;99.90;;;;;;4720901;30;20114;-89
2020/12/19 03:04:25;;;;;;;13.68;10.35;;;5.20;99.90;;;;;;4725428;30;20097;-86
2020/12/19 03:06:51;;;;;;;18.15;12.43;;;5.20;99.90;;;;;;4705005;30;20121;-85
2020/12/19 03:09:18;;;;;;;23.20;13.45;;;5.20;99.90;;;;;;4749248;30;20056;-85
2020/12/19 03:12:04;;;;;;;21.15;12.85;;;5.40;99.90;;;;;;4731887;30;20451;-84
2020/12/19 03:14:30;;;;;;;23.17;13.98;;;5.30;99.90;;;;;;4719352;30;20129;-85
2020/12/19 03:16:56;;;;;;;19.10;12.38;;;5.40;99.90;;;;;;4732947;30;20166;-85
2020/12/19 03:19:42;;;;;;;19.77;11.60;;;5.40;99.90;;;;;;4736087;30;20059;-88
2020/12/19 03:22:07;;;;;;;23.27;12.93;;;5.40;99.90;;;;;;4749228;30;20127;-85
2020/12/19 03:24:33;;;;;;;22.40;13.68;;;5.50;99.90;;;;;;4747768;30;20060;-85
2020/12/19 03:27:19;;;;;;;22.73;12.20;;;5.50;99.90;;;;;;4735092;30;20409;-85
2020/12/19 03:29:44;;;;;;;21.63;13.60;;;5.50;99.90;;;;;;4732599;30;20060;-85
2020/12/19 03:32:30;;;;;;;21.63;13.00;;;5.50;99.90;;;;;;4718623;30;20149;-85
2020/12/19 03:34:56;;;;;;;20.55;13.05;;;5.50;99.90;;;;;;4718013;30;20111;-85
2020/12/19 03:37:42;;;;;;;22.98;13.07;;;5.40;99.90;;;;;;4706210;30;20076;-89
2020/12/19 03:40:07;;;;;;;19.00;12.73;;;5.50;99.90;;;;;;4747354;30;20044;-84
2020/12/19 03:42:33;;;;;;;26.80;14.20;;;5.40;99.90;;;;;;4749535;30;20059;-87
2020/12/19 03:44:59;;;;;;;24.67;13.48;;;5.40;99.90;;;;;;4721851;30;20409;-85
2020/12/19 03:47:25;;;;;;;22.38;12.07;;;5.30;99.90;;;;;;4719413;30;20055;-85
2020/12/19 03:49:51;;;;;;;20.90;13.73;;;5.40;99.90;;;;;;4731178;30;20048;-85
2020/12/19 03:52:17;;;;;;;25.85;14.32;;;5.20;99.90;;;;;;4714049;30;673550;-89
2020/12/19 03:55:04;;;;;;;22.30;13.55;;;5.20;99.90;;;;;;4715904;30;20052;-84
2020/12/19 03:57:29;;;;;;;29.13;14.15;;;5.20;99.90;;;;;;4737578;30;20406;-84
2020/12/19 03:59:55;;;;;;;25.10;14.25;;;5.20;99.90;;;;;;4736556;30;20059;-84
2020/12/19 04:02:21;;;;;;;24.27;14.60;;;5.10;99.90;;;;;;4737886;30;20051;-84
2020/12/19 04:04:47;;;;;;;26.88;16.73;;;5.10;99.90;;;;;;4737013;30;20051;-84
2020/12/19 04:07:13;;;;;;;25.63;16.25;;;5.00;99.90;;;;;;4737245;30;20058;-83
2020/12/19 04:09:39;;;;;;;22.85;15.27;;;5.00;99.90;;;;;;4751434;30;20044;-83
2020/12/19 04:12:25;;;;;;;23.50;15.18;;;5.10;99.90;;;;;;4727775;30;20056;-83
2020/12/19 04:14:51;;;;;;;29.33;15.57;;;5.00;99.90;;;;;;4736865;30;20125;-84
2020/12/19 04:17:37;;;;;;;26.00;14.98;;;5.00;99.90;;;;;;4713414;30;20068;-86
2020/12/19 04:20:22;;;;;;;25.05;16.10;;;5.10;99.90;;;;;;4747871;30;20063;-86
2020/12/19 04:22:48;;;;;;;23.65;15.70;;;5.10;99.90;;;;;;4730536;30;20052;-86
2020/12/19 04:25:14;;;;;;;23.90;14.57;;;5.10;99.90;;;;;;4741499;30;20064;-86
2020/12/19 04:27:41;;;;;;;20.80;14.15;;;5.10;99.90;;;;;;4722465;30;20487;-85
2020/12/19 04:30:08;;;;;;;24.42;15.50;;;5.10;99.90;;;;;;4752870;30;20056;-85
2020/12/19 04:32:35;;;;;;;24.40;14.98;;;5.00;99.90;;;;;;4753239;30;20184;-85
2020/12/19 04:35:21;;;;;;;28.23;16.67;;;5.00;99.90;;;;;;4739808;30;20139;-85
2020/12/19 04:38:06;;;;;;;25.08;15.60;;;5.10;99.90;;;;;;4727549;30;20051;-86
2020/12/19 04:40:32;;;;;;;28.20;16.60;;;5.00;99.90;;;;;;4760814;30;20060;-86
2020/12/19 04:43:19;;;;;;;34.10;15.35;;;5.10;99.90;;;;;;4739905;30;20525;-86
2020/12/19 04:45:49;;;;;;;27.58;16.15;;;5.10;99.90;;;;;;4743171;30;20127;-90
2020/12/19 04:48:17;;;;;;;26.33;12.57;;;5.20;99.90;;;;;;4751705;30;20482;-85
2020/12/19 04:50:45;;;;;;;25.27;15.80;;;5.10;99.90;;;;;;4736546;30;20053;-85
2020/12/19 04:53:29;;;;;;;36.78;15.43;;;5.10;99.90;;;;;;4752669;30;20137;-85
2020/12/19 04:56:16;;;;;;;25.23;16.15;;;5.10;99.90;;;;;;4720736;30;20068;-85
2020/12/19 04:58:42;;;;;;;23.20;15.23;;;5.00;99.90;;;;;;4736529;30;20063;-85
2020/12/19 05:01:28;;;;;;;23.15;14.60;;;5.00;99.90;;;;;;4717222;30;20052;-85
2020/12/19 05:03:54;;;;;;;30.73;16.60;;;4.90;99.90;;;;;;4747737;30;20117;-85
2020/12/19 05:06:41;;;;;;;34.75;17.33;;;4.90;99.90;;;;;;4725246;30;20053;-85
2020/12/19 05:09:27;;;;;;;26.00;16.05;;;4.80;99.90;;;;;;4725991;30;20056;-85
2020/12/19 05:11:55;;;;;;;25.08;15.23;;;4.80;99.90;;;;;;4735633;30;20118;-86
2020/12/19 05:14:22;;;;;;;28.63;15.70;;;4.80;99.90;;;;;;4736325;30;20052;-85
2020/12/19 05:16:48;;;;;;;28.30;17.88;;;4.80;99.90;;;;;;4736049;30;20052;-88
2020/12/19 05:19:15;;;;;;;28.77;16.45;;;4.70;99.90;;;;;;4721351;30;20056;-86
2020/12/19 05:22:01;;;;;;;27.55;17.48;;;4.70;99.90;;;;;;4714640;30;20057;-85
2020/12/19 05:24:47;;;;;;;27.55;16.77;;;4.70;99.90;;;;;;4738256;30;20139;-85
2020/12/19 05:27:13;;;;;;;28.90;15.50;;;4.70;99.90;;;;;;4751028;30;20044;-86
2020/12/19 05:29:38;;;;;;;39.90;19.35;;;4.60;99.90;;;;;;4736009;30;20123;-86
2020/12/19 05:32:04;;;;;;;30.17;17.25;;;4.60;99.90;;;;;;4750153;30;20143;-85
2020/12/19 05:34:30;;;;;;;34.88;18.63;;;4.60;99.90;;;;;;4750438;30;20082;-86
2020/12/19 05:36:57;;;;;;;31.67;17.35;;;4.70;99.90;;;;;;4720137;30;20054;-85
2020/12/19 05:39:52;;;;;;;30.25;17.58;;;4.80;99.90;;;;;;4714688;30;20092;-87
2020/12/19 05:42:22;;;;;;;32.45;18.70;;;4.80;99.90;;;;;;4734562;30;20047;-84
2020/12/19 05:45:16;;;;;;;35.20;17.33;;;4.80;99.90;;;;;;4736782;30;20125;-84
2020/12/19 05:47:43;;;;;;;32.33;18.67;;;4.80;99.90;;;;;;4734580;30;20530;-84
2020/12/19 05:50:10;;;;;;;32.42;18.88;;;4.80;99.90;;;;;;4749708;30;20056;-86
2020/12/19 05:52:39;;;;;;;27.73;17.88;;;4.80;99.90;;;;;;4734690;30;20067;-85
2020/12/19 05:55:10;;;;;;;33.88;19.25;;;4.80;99.90;;;;;;4734163;30;20075;-84
2020/12/19 05:57:37;;;;;;;37.05;18.80;;;4.70;99.90;;;;;;4734425;30;20056;-84
2020/12/19 06:00:14;;;;;;;33.17;18.58;;;4.80;99.90;;;;;;4749659;30;20119;-84
2020/12/19 06:03:02;;;;;;;35.70;19.13;;;4.60;99.90;;;;;;4724503;30;20553;-84
2020/12/19 06:05:30;;;;;;;35.85;19.92;;;4.60;99.90;;;;;;4733458;30;20087;-84
2020/12/19 06:07:58;;;;;;;26.50;17.42;;;4.60;99.90;;;;;;4749223;30;20044;-89
2020/12/19 06:10:23;;;;;;;40.72;20.42;;;4.60;99.90;;;;;;4751089;30;20044;-84
2020/12/19 06:12:52;;;;;;;41.38;20.33;;;4.50;99.90;;;;;;4735058;30;20052;-84
2020/12/19 06:15:48;;;;;;;39.53;20.95;;;4.50;99.90;;;;;;4749790;30;20055;-84
2020/12/19 06:18:36;;;;;;;40.28;21.42;;;4.50;99.90;;;;;;4749505;30;20653;-83
2020/12/19 06:21:07;;;;;;;30.98;18.50;;;4.50;99.90;;;;;;4748305;30;20153;-83
2020/12/19 06:23:33;;;;;;;;;;;4.40;99.90;;;;;;4720479;30;20052;-84
2020/12/19 06:25:59;;;;;;;35.25;18.58;;;4.50;99.90;;;;;;4749359;30;19926;-85
2020/12/19 06:28:47;;;;;;;36.35;21.80;;;4.50;99.90;;;;;;4701051;30;20527;-87
2020/12/19 06:31:33;;;;;;;36.20;20.80;;;4.50;99.90;;;;;;4738118;30;20072;-87
2020/12/19 06:34:04;;;;;;;44.03;21.15;;;4.50;99.90;;;;;;4723302;30;20130;-85
2020/12/19 06:36:54;;;;;;;36.40;21.00;;;4.50;99.90;;;;;;4737067;30;20064;-85
2020/12/19 06:39:20;;;;;;;37.72;20.27;;;4.60;99.90;;;;;;4748620;30;20127;-85
2020/12/19 06:42:06;;;;;;;32.50;19.27;;;4.60;99.90;;;;;;4730996;30;20139;-84
2020/12/19 06:44:32;;;;;;;32.85;18.90;;;4.60;99.90;;;;;;4745041;30;20134;-84
2020/12/19 06:47:00;;;;;;;33.17;19.63;;;4.50;99.90;;;;;;4749730;30;20430;-89
2020/12/19 06:49:27;;;;;;;34.97;19.05;;;4.50;99.90;;;;;;4734859;30;20060;-84
2020/12/19 06:51:56;;;;;;;36.42;18.33;;;4.50;99.90;;;;;;4734456;30;20109;-86
2020/12/19 06:54:29;;;;;;;29.73;17.10;;;4.40;99.90;;;;;;4750159;30;20067;-84
2020/12/19 06:57:30;;;;;;;35.58;18.77;;;4.40;99.90;;;;;;4735526;30;20073;-84
2020/12/19 07:00:23;;;;;;;34.80;20.45;;;4.30;99.90;;;;;;4734485;30;20059;-88
2020/12/19 07:02:51;;;;;;;40.85;20.33;;;4.30;99.90;;;;;;4745724;30;20085;-84
2020/12/19 07:05:25;;;;;;;40.47;21.08;;;4.30;99.90;;;;;;4733988;30;20792;-88
2020/12/19 07:07:52;;;;;;;47.50;20.80;;;4.30;99.90;;;;;;4734932;30;20120;-85
2020/12/19 07:10:34;;;;;;;34.88;20.52;;;4.30;99.90;;;;;;4749887;30;20500;-86
2020/12/19 07:13:20;;;;;;;39.65;21.42;;;4.30;99.90;;;;;;4735586;30;20623;-85
2020/12/19 07:15:53;;;;;;;41.10;21.33;;;4.30;99.90;;;;;;4748614;30;20055;-85
2020/12/19 07:18:37;;;;;;;37.42;21.27;;;4.30;99.90;;;;;;4718226;30;20101;-87
2020/12/19 07:21:22;;;;;;;40.63;20.45;;;4.30;99.90;;;;;;4735792;30;20075;-86
2020/12/19 07:23:48;;;;;;;36.67;20.65;;;4.20;99.90;;;;;;4704336;30;20782;-85
2020/12/19 07:26:14;;;;;;;40.28;22.60;;;4.20;99.90;;;;;;4733535;30;20048;-85
2020/12/19 07:28:40;;;;;;;39.80;21.77;;;4.20;99.90;;;;;;4749798;30;20056;-84
2020/12/19 07:31:05;;;;;;;47.72;22.92;;;4.20;99.90;;;;;;4749099;30;20093;-85
2020/12/19 07:33:51;;;;;;;47.35;23.15;;;4.20;99.90;;;;;;4724889;30;20052;-85
2020/12/19 07:36:43;;;;;;;44.95;23.80;;;4.10;99.90;;;;;;4723104;30;20068;-86
2020/12/19 07:39:10;;;;;;;42.10;23.17;;;4.10;99.90;;;;;;4748522;30;20414;-86
2020/12/19 07:41:37;;;;;;;39.40;22.38;;;4.10;99.90;;;;;;4734501;30;20077;-85
2020/12/19 07:44:08;;;;;;;40.78;21.08;;;4.20;99.90;;;;;;4734175;30;20423;-89
2020/12/19 07:47:00;;;;;;;40.45;22.80;;;4.10;99.90;;;;;;4724690;30;20413;-86
2020/12/19 07:49:47;;;;;;;46.25;24.13;;;4.10;99.90;;;;;;4734271;30;20047;-85
2020/12/19 07:52:20;;;;;;;47.35;22.02;;;4.20;99.90;;;;;;4722801;30;20055;-86
2020/12/19 07:55:00;;;;;;;45.72;22.98;;;4.20;99.90;;;;;;4734371;30;20047;-86
2020/12/19 07:57:28;;;;;;;48.45;23.27;;;4.20;99.90;;;;;;4733297;30;20113;-85
2020/12/19 08:00:16;;;;;;;56.10;25.65;;;4.20;99.90;;;;;;4754459;30;20063;-86
2020/12/19 08:02:42;;;;;;;48.70;23.65;;;4.20;99.90;;;;;;4750063;30;20131;-85
2020/12/19 08:05:08;;;;;;;51.42;24.75;;;4.10;99.90;;;;;;4733467;30;20565;-86
2020/12/19 08:07:33;;;;;;;42.47;21.42;;;4.10;99.90;;;;;;4744194;30;20565;-86
2020/12/19 08:10:20;;;;;;;45.15;22.98;;;4.20;99.90;;;;;;4714120;30;20071;-85
2020/12/19 08:12:47;;;;;;;39.70;22.60;;;4.20;99.90;;;;;;4733227;30;20055;-85
2020/12/19 08:15:17;;;;;;;49.80;23.25;;;4.20;99.90;;;;;;4732497;30;20044;-87
2020/12/19 08:17:49;;;;;;;;;;;4.20;99.90;;;;;;4733288;30;20119;-86
2020/12/19 08:20:37;;;;;;;38.33;21.10;;;4.30;99.90;;;;;;4735957;30;20291;-85
2020/12/19 08:23:06;;;;;;;34.35;19.65;;;4.30;99.90;;;;;;4747717;30;20051;-88
2020/12/19 08:25:32;;;;;;;38.00;21.38;;;4.40;99.90;;;;;;4731964;30;20063;-85
2020/12/19 08:27:58;;;;;;;39.97;20.73;;;4.40;99.90;;;;;;4748709;30;20048;-87
2020/12/19 08:30:43;;;;;;;34.50;18.88;;;4.50;99.90;;;;;;4727343;30;20052;-85
2020/12/19 08:33:10;;;;;;;38.88;19.50;;;4.50;99.90;;;;;;4734908;30;20054;-87
2020/12/19 08:35:56;;;;;;;41.00;19.80;;;4.70;99.90;;;;;;4714463;30;20052;-86
2020/12/19 08:38:42;;;;;;;34.38;19.90;;;4.60;99.90;;;;;;4730743;30;20413;-85
2020/12/19 08:41:18;;;;;;;37.10;20.45;;;4.70;99.90;;;;;;4729861;30;20056;-88
2020/12/19 08:43:44;;;;;;;37.67;21.33;;;4.90;99.90;;;;;;4751861;30;20074;-86
2020/12/19 08:46:13;;;;;;;38.72;20.13;;;4.80;99.90;;;;;;4732710;30;20490;-88
2020/12/19 08:49:00;;;;;;;32.33;19.90;;;4.90;99.90;;;;;;4724568;30;20459;-86
2020/12/19 08:51:26;;;;;;;32.33;18.85;;;4.90;99.90;;;;;;4729757;30;20076;-86
2020/12/19 08:53:53;;;;;;;28.42;17.83;;;5.00;99.90;;;;;;4729047;30;20056;-86
2020/12/19 08:56:39;;;;;;;28.85;18.58;;;5.00;99.90;;;;;;4712321;30;20103;-86
2020/12/19 08:59:07;;;;;;;33.17;18.42;;;5.00;99.90;;;;;;4730030;30;20052;-89
2020/12/19 09:01:56;;;;;;;27.38;16.92;;;5.10;99.90;;;;;;4699538;30;21493;-86
2020/12/19 09:04:48;;;;;;;32.07;19.73;;;5.10;99.90;;;;;;4720977;30;20048;-85
2020/12/19 09:07:14;;;;;;;29.25;17.73;;;5.20;99.90;;;;;;4701368;30;20097;-86
2020/12/19 09:09:40;;;;;;;28.55;17.50;;;5.30;99.90;;;;;;4710372;30;20080;-84
2020/12/19 09:12:14;;;;;;;28.80;16.63;;;5.30;99.90;;;;;;4739934;30;20417;-85
2020/12/19 09:15:18;;;;;;;26.40;16.50;;;5.40;99.90;;;;;;4727116;30;20060;-85
2020/12/19 09:17:44;;;;;;;26.38;16.10;;;5.50;99.90;;;;;;4733936;30;20056;-86
2020/12/19 09:20:09;;;;;;;26.52;16.95;;;5.50;99.90;;;;;;4712293;30;20069;-88
2020/12/19 09:22:35;;;;;;;27.17;16.73;;;5.60;99.90;;;;;;4719404;30;20048;-84
2020/12/19 09:25:01;;;;;;;28.73;15.50;;;5.60;99.90;;;;;;4734519;30;20446;-85
2020/12/19 09:27:47;;;;;;;24.33;16.70;;;5.70;99.90;;;;;;4719616;30;20052;-85
2020/12/19 09:30:35;;;;;;;25.63;16.13;;;5.70;99.90;;;;;;4712606;30;20470;-85
2020/12/19 09:33:01;;;;;;;23.35;15.77;;;5.80;99.90;;;;;;4729012;30;20052;-85
2020/12/19 09:35:28;;;;;;;30.33;15.90;;;5.80;99.90;;;;;;4743040;30;20075;-85
2020/12/19 09:37:54;;;;;;;26.48;15.82;;;5.90;99.90;;;;;;4724197;30;20430;-85
2020/12/19 09:40:21;;;;;;;22.38;16.20;;;5.90;99.90;;;;;;4739737;30;20491;-85
2020/12/19 09:42:47;;;;;;;26.38;17.02;;;6.00;99.90;;;;;;4738210;30;20123;-85
2020/12/19 09:45:35;;;;;;;23.10;14.68;;;6.00;99.90;;;;;;4717658;30;20052;-85
2020/12/19 09:48:01;;;;;;;22.95;15.43;;;6.10;99.90;;;;;;4750774;30;20048;-85
2020/12/19 09:50:27;;;;;;;25.52;16.08;;;6.10;99.90;;;;;;4731038;30;20056;-86
2020/12/19 09:52:54;;;;;;;24.45;16.23;;;6.20;99.90;;;;;;4744397;30;20133;-85
2020/12/19 09:55:21;;;;;;;22.63;14.95;;;6.30;99.90;;;;;;4749716;30;20565;-86
2020/12/19 09:57:47;;;;;;;24.35;16.35;;;6.40;99.90;;;;;;4734584;30;20062;-86
2020/12/19 10:00:13;;;;;;;26.90;15.63;;;6.50;99.90;;;;;;4719656;30;20126;-88
2020/12/19 10:02:59;;;;;;;24.60;16.58;;;6.50;99.90;;;;;;4736627;30;20135;-86
2020/12/19 10:05:25;;;;;;;24.45;15.05;;;6.70;99.90;;;;;;4733330;30;20126;-88
2020/12/19 10:07:50;;;;;;;22.00;14.80;;;6.70;99.90;;;;;;4734282;30;20052;-85
2020/12/19 10:10:37;;;;;;;18.88;13.45;;;6.80;99.90;;;;;;4723664;30;20059;-86
2020/12/19 10:13:03;;;;;;;23.88;15.25;;;7.00;99.90;;;;;;4719932;30;20106;-85
2020/12/19 10:15:28;;;;;;;22.58;14.25;;;7.00;99.90;;;;;;4748643;30;20076;-86
2020/12/19 10:17:54;;;;;;;20.00;13.85;;;7.10;99.90;;;;;;4733091;30;20059;-88
2020/12/19 10:20:20;;;;;;;19.73;13.18;;;7.20;99.90;;;;;;4718427;30;20412;-86
2020/12/19 10:23:06;;;;;;;16.95;12.30;;;7.20;99.90;;;;;;4736124;30;20493;-87
2020/12/19 10:25:32;;;;;;;24.42;14.00;;;7.30;99.90;;;;;;4718365;30;20056;-86
2020/12/19 10:27:58;;;;;;;19.60;11.55;;;7.40;99.90;;;;;;4733414;30;20052;-85
2020/12/19 10:30:23;;;;;;;17.90;12.88;;;7.40;99.90;;;;;;4732706;30;20133;-86
2020/12/19 10:32:49;;;;;;;21.55;14.02;;;7.50;99.90;;;;;;4734371;30;20068;-86
2020/12/19 10:35:15;;;;;;;20.42;14.18;;;7.60;99.90;;;;;;4730105;30;20064;-89
2020/12/19 10:37:41;;;;;;;20.92;12.18;;;7.60;99.90;;;;;;4739583;30;20055;-86
2020/12/19 10:40:26;;;;;;;17.90;13.13;;;7.60;99.90;;;;;;4721159;30;20426;-86
2020/12/19 10:42:52;;;;;;;20.63;12.73;;;7.70;99.90;;;;;;4736287;30;20056;-86
2020/12/19 10:45:18;;;;;;;16.17;11.85;;;7.80;99.90;;;;;;4741283;30;20040;-87
2020/12/19 10:47:43;;;;;;;19.88;12.70;;;7.80;99.90;;;;;;4708274;30;20063;-86
2020/12/19 10:50:09;;;;;;;19.15;12.32;;;7.90;99.90;;;;;;4720270;30;20053;-87
2020/12/19 10:52:35;;;;;;;17.13;12.35;;;7.90;99.90;;;;;;4713619;30;20129;-85
2020/12/19 10:55:01;;;;;;;17.17;12.45;;;8.00;99.90;;;;;;4721109;30;20531;-85
2020/12/19 10:57:27;;;;;;;18.77;13.48;;;8.10;99.90;;;;;;4746844;30;20040;-86
2020/12/19 10:59:53;;;;;;;20.73;13.68;;;8.10;99.90;;;;;;4732319;30;20261;-86
2020/12/19 11:02:19;;;;;;;15.88;12.00;;;8.10;99.90;;;;;;4721626;30;20150;-88
2020/12/19 11:04:44;;;;;;;22.75;13.85;;;8.20;99.90;;;;;;4722184;30;20497;-86
2020/12/19 11:07:10;;;;;;;22.45;12.25;;;8.20;99.90;;;;;;4718263;30;20457;-84
2020/12/19 11:09:36;;;;;;;20.40;12.50;;;8.20;99.90;;;;;;4699673;30;20313;-84
2020/12/19 11:12:02;;;;;;;17.85;12.77;;;8.30;99.90;;;;;;4717268;30;20056;-84
2020/12/19 11:14:29;;;;;;;18.67;13.02;;;8.30;99.90;;;;;;4722554;30;20421;-85
2020/12/19 11:16:56;;;;;;;21.02;13.50;;;8.40;99.90;;;;;;4710696;30;20043;-84
2020/12/19 11:19:22;;;;;;;19.42;13.10;;;8.50;99.90;;;;;;4731303;30;20105;-86
2020/12/19 11:21:48;;;;;;;18.02;12.65;;;8.50;99.90;;;;;;4731538;30;20044;-86
2020/12/19 11:24:33;;;;;;;23.08;13.48;;;8.50;99.90;;;;;;4720485;30;20056;-84
2020/12/19 11:27:19;;;;;;;18.50;13.07;;;8.60;99.90;;;;;;4732168;30;20094;-86
2020/12/19 11:30:05;;;;;;;19.25;12.82;;;8.60;99.90;;;;;;4715043;30;20521;-85
2020/12/19 11:32:53;;;;;;;15.18;11.02;;;8.70;99.90;;;;;;4704556;30;20045;-85
2020/12/19 11:35:19;;;;;;;15.35;11.57;;;8.70;99.80;;;;;;4723621;30;20056;-85
2020/12/19 11:37:44;;;;;;;16.48;11.93;;;8.80;99.90;;;;;;4706671;30;20040;-85
2020/12/19 11:40:10;;;;;;;14.63;11.45;;;8.80;99.70;;;;;;4712572;30;20088;-84
2020/12/19 11:42:37;;;;;;;17.83;12.63;;;8.90;99.50;;;;;;4726177;30;20059;-86
2020/12/19 11:45:04;;;;;;;17.75;11.13;;;8.90;99.30;;;;;;4741097;30;20040;-86
2020/12/19 11:47:30;;;;;;;15.90;11.32;;;9.00;99.50;;;;;;4743940;30;20056;-85
2020/12/19 11:49:55;;;;;;;18.08;11.50;;;9.00;99.40;;;;;;4734360;30;20109;-87
2020/12/19 11:52:21;;;;;;;17.63;12.55;;;9.10;99.20;;;;;;4733285;30;20056;-85
2020/12/19 11:54:47;;;;;;;16.30;11.02;;;9.10;98.90;;;;;;4717007;30;20049;-87
2020/12/19 11:57:13;;;;;;;15.38;9.95;;;9.20;98.80;;;;;;4716901;30;21256;-87
2020/12/19 11:59:39;;;;;;;13.75;9.68;;;9.20;98.70;;;;;;4725428;30;20059;-87
2020/12/19 12:02:05;;;;;;;18.52;11.15;;;9.30;98.40;;;;;;4734177;30;20053;-87
2020/12/19 12:04:31;;;;;;;13.55;10.65;;;9.40;98.50;;;;;;4733891;30;20464;-87
2020/12/19 12:07:17;;;;;;;15.52;10.38;;;9.40;97.90;;;;;;4709310;30;20162;-88
2020/12/19 12:09:48;;;;;;;19.10;11.05;;;9.50;98.30;;;;;;4706766;30;20048;-88
2020/12/19 12:12:14;;;;;;;15.15;10.48;;;9.50;98.00;;;;;;4719911;30;20125;-89
2020/12/19 12:15:00;;;;;;;15.20;10.25;;;9.50;98.20;;;;;;4715018;30;20080;-87
2020/12/19 12:17:25;;;;;;;14.07;9.73;;;9.60;97.80;;;;;;4705914;30;20541;-89
2020/12/19 12:20:11;;;;;;;13.10;10.40;;;9.60;97.80;;;;;;4723086;30;20076;-87
2020/12/19 12:22:37;;;;;;;19.50;10.80;;;9.60;98.00;;;;;;4726038;30;20082;-86
2020/12/19 12:25:43;;;;;;;12.45;9.65;;;9.60;98.00;;;;;;4710716;30;20052;-93
2020/12/19 12:28:11;;;;;;;15.35;10.60;;;9.50;98.10;;;;;;4724196;30;20045;-86
2020/12/19 12:30:39;;;;;;;15.15;10.65;;;9.50;98.10;;;;;;4721463;30;20420;-84
2020/12/19 12:33:25;;;;;;;15.57;10.73;;;9.50;97.90;;;;;;4723144;30;20124;-86
2020/12/19 12:35:51;;;;;;;16.55;10.68;;;9.50;98.00;;;;;;4737208;30;20052;-85
2020/12/19 12:38:17;;;;;;;17.92;10.80;;;9.50;98.00;;;;;;4745175;30;20075;-86
2020/12/19 12:40:42;;;;;;;13.77;9.98;;;9.50;98.30;;;;;;4713551;30;20131;-86
2020/12/19 12:43:08;;;;;;;14.48;9.70;;;9.50;98.00;;;;;;4691573;30;20118;-85
2020/12/19 12:45:34;;;;;;;12.90;9.82;;;9.40;98.20;;;;;;4719709;30;20075;-87
2020/12/19 12:48:20;;;;;;;12.45;10.18;;;9.50;97.80;;;;;;4721222;30;20055;-87
2020/12/19 12:51:11;;;;;;;18.70;10.00;;;9.50;97.90;;;;;;4723895;30;20755;-88
2020/12/19 12:53:42;;;;;;;13.70;10.88;;;9.50;98.10;;;;;;4746363;30;20056;-89
2020/12/19 12:56:08;;;;;;;15.48;11.55;;;9.60;97.70;;;;;;4728813;30;20063;-88
2020/12/19 12:58:33;;;;;;;13.50;11.32;;;9.60;97.60;;;;;;4728574;30;20417;-91
2020/12/19 13:01:03;;;;;;;12.82;10.00;;;9.60;97.90;;;;;;4741278;30;20048;-89
2020/12/19 13:03:29;;;;;;;16.17;11.20;;;9.70;97.60;;;;;;4749884;30;20048;-89
2020/12/19 13:06:14;;;;;;;15.35;10.48;;;9.70;98.00;;;;;;4723374;30;20059;-90